createdAt,value
2023-02-18T00:00:01.062Z,58.95
2023-02-18T00:00:51.135Z,59.00
2023-02-18T00:01:41.178Z,58.93
2023-02-18T00:02:31.451Z,59.12
2023-02-18T00:03:21.510Z,59.40
2023-02-18T00:04:11.512Z,59.32
2023-02-18T00:05:01.535Z,59.01
2023-02-18T00:05:51.599Z,59.21
2023-02-18T00:06:41.650Z,59.29
2023-02-18T00:07:31.673Z,59.54
2023-02-18T00:08:21.733Z,59.44
2023-02-18T00:09:11.784Z,59.60
2023-02-18T00:10:01.979Z,59.71
2023-02-18T00:10:52.034Z,59.27
2023-02-18T00:11:42.079Z,59.24
2023-02-18T00:12:32.106Z,59.68
2023-02-18T00:13:22.140Z,59.52
2023-02-18T00:14:12.313Z,59.38
2023-02-18T00:15:02.364Z,59.27
2023-02-18T00:15:52.500Z,58.97
2023-02-18T00:16:42.621Z,59.57
2023-02-18T00:17:32.496Z,59.62
2023-02-18T00:18:22.562Z,59.55
2023-02-18T00:19:12.601Z,59.81
2023-02-18T00:20:02.886Z,59.54
2023-02-18T00:20:52.982Z,59.21
2023-02-18T00:21:43.003Z,58.99
2023-02-18T00:22:33.101Z,59.34
2023-02-18T00:23:23.113Z,59.59
2023-02-18T00:24:13.188Z,59.39
2023-02-18T00:25:03.223Z,59.42
2023-02-18T00:25:53.534Z,59.37
2023-02-18T00:26:43.554Z,59.40
2023-02-18T00:27:33.600Z,59.49
2023-02-18T00:28:23.662Z,59.18
2023-02-18T00:29:13.698Z,59.61
2023-02-18T00:30:03.822Z,59.35
2023-02-18T00:30:53.849Z,59.14
2023-02-18T00:31:44.280Z,59.19
2023-02-18T00:32:34.161Z,59.68
2023-02-18T00:33:24.203Z,59.60
2023-02-18T00:34:14.288Z,59.65
2023-02-18T00:35:04.310Z,59.43
2023-02-18T00:35:54.398Z,59.56
2023-02-18T00:36:44.433Z,59.24
2023-02-18T00:37:35.544Z,59.28
2023-02-18T00:38:24.868Z,59.16
2023-02-18T00:39:14.864Z,59.22
2023-02-18T00:40:04.852Z,59.33
2023-02-18T00:40:54.911Z,59.41
2023-02-18T00:41:44.937Z,59.21
2023-02-18T00:42:34.968Z,59.05
2023-02-18T00:43:25.022Z,59.31
2023-02-18T00:44:15.107Z,59.22
2023-02-18T00:45:05.217Z,58.61
2023-02-18T00:45:55.312Z,58.61
2023-02-18T00:46:45.388Z,59.46
2023-02-18T00:47:35.395Z,59.19
2023-02-18T00:48:25.437Z,58.72
2023-02-18T00:49:15.509Z,58.67
2023-02-18T00:50:05.545Z,59.41
2023-02-18T00:50:55.868Z,59.17
2023-02-18T00:51:45.898Z,58.94
2023-02-18T00:52:35.945Z,58.84
2023-02-18T00:53:26.013Z,59.09
2023-02-18T00:54:16.076Z,59.23
2023-02-18T00:55:06.097Z,59.19
2023-02-18T00:55:56.165Z,58.93
2023-02-18T00:56:46.436Z,59.10
2023-02-18T00:57:36.503Z,59.49
2023-02-18T00:58:26.539Z,59.06
2023-02-18T00:59:16.620Z,58.76
2023-02-18T01:00:06.651Z,58.63
2023-02-18T01:00:56.762Z,59.24
2023-02-18T01:01:46.858Z,59.15
2023-02-18T01:02:37.078Z,59.04
2023-02-18T01:03:27.136Z,58.46
2023-02-18T01:04:17.196Z,58.91
2023-02-18T01:05:07.227Z,58.88
2023-02-18T01:05:57.268Z,58.84
2023-02-18T01:06:47.292Z,59.09
2023-02-18T01:07:37.331Z,59.04
2023-02-18T01:08:27.397Z,59.12
2023-02-18T01:09:17.474Z,58.49
2023-02-18T01:10:07.611Z,58.76
2023-02-18T01:10:57.689Z,58.36
2023-02-18T01:11:47.719Z,59.08
2023-02-18T01:12:37.794Z,58.38
2023-02-18T01:13:27.829Z,59.07
2023-02-18T01:14:17.899Z,58.79
2023-02-18T01:15:07.929Z,59.26
2023-02-18T01:15:58.229Z,58.67
2023-02-18T01:16:48.215Z,58.71
2023-02-18T01:17:38.245Z,59.31
2023-02-18T01:18:28.313Z,58.76
2023-02-18T01:19:18.363Z,58.81
2023-02-18T01:20:08.394Z,59.03
2023-02-18T01:20:58.459Z,59.01
2023-02-18T01:21:48.485Z,58.54
2023-02-18T01:22:38.523Z,59.20
2023-02-18T01:23:28.684Z,58.66
2023-02-18T01:24:18.754Z,58.74
2023-02-18T01:25:08.812Z,59.00
2023-02-18T01:25:58.875Z,58.59
2023-02-18T01:26:48.919Z,59.05
2023-02-18T01:27:38.968Z,59.31
2023-02-18T01:28:29.001Z,58.89
2023-02-18T01:29:19.327Z,58.67
2023-02-18T01:30:09.421Z,59.13
2023-02-18T01:30:59.532Z,59.16
2023-02-18T01:31:49.574Z,58.91
2023-02-18T01:32:39.549Z,58.65
2023-02-18T01:33:29.573Z,58.51
2023-02-18T01:34:19.619Z,59.16
2023-02-18T01:35:09.644Z,59.41
2023-02-18T01:35:59.704Z,59.25
2023-02-18T01:36:49.863Z,58.69
2023-02-18T01:37:39.930Z,58.48
2023-02-18T01:38:29.974Z,59.14
2023-02-18T01:39:20.031Z,58.50
2023-02-18T01:40:10.071Z,58.50
2023-02-18T01:41:00.147Z,58.55
2023-02-18T01:41:50.204Z,58.49
2023-02-18T01:42:40.469Z,58.54
2023-02-18T01:43:30.536Z,58.44
2023-02-18T01:44:20.590Z,58.51
2023-02-18T01:45:10.642Z,58.43
2023-02-18T01:46:00.714Z,59.01
2023-02-18T01:46:50.789Z,58.52
2023-02-18T01:47:40.783Z,58.57
2023-02-18T01:48:31.117Z,58.64
2023-02-18T01:49:21.173Z,58.77
2023-02-18T01:50:11.207Z,59.09
2023-02-18T01:51:01.301Z,59.16
2023-02-18T01:51:51.344Z,58.94
2023-02-18T01:52:41.384Z,58.93
2023-02-18T01:53:31.423Z,58.80
2023-02-18T01:54:21.706Z,58.92
2023-02-18T01:55:11.776Z,59.01
2023-02-18T01:56:01.825Z,58.97
2023-02-18T01:56:51.846Z,58.60
2023-02-18T01:57:41.927Z,58.99
2023-02-18T01:58:31.927Z,58.49
2023-02-18T01:59:21.961Z,58.62
2023-02-18T02:00:12.045Z,58.88
2023-02-18T02:01:02.190Z,58.82
2023-02-18T02:01:52.258Z,59.03
2023-02-18T02:02:42.276Z,59.35
2023-02-18T02:03:32.308Z,58.59
2023-02-18T02:04:22.388Z,58.46
2023-02-18T02:05:12.420Z,58.75
2023-02-18T02:06:02.508Z,58.48
2023-02-18T02:06:52.548Z,58.98
2023-02-18T02:07:42.891Z,59.32
2023-02-18T02:08:32.911Z,59.00
2023-02-18T02:09:22.946Z,59.15
2023-02-18T02:10:13.005Z,58.89
2023-02-18T02:11:03.080Z,58.77
2023-02-18T02:11:53.091Z,58.83
2023-02-18T02:12:43.131Z,59.33
2023-02-18T02:13:33.187Z,59.25
2023-02-18T02:14:23.209Z,58.69
2023-02-18T02:15:13.363Z,59.13
2023-02-18T02:16:03.479Z,58.79
2023-02-18T02:16:53.455Z,58.76
2023-02-18T02:17:43.529Z,58.97
2023-02-18T02:18:33.568Z,58.86
2023-02-18T02:19:23.638Z,59.07
2023-02-18T02:20:13.674Z,59.18
2023-02-18T02:21:03.975Z,58.43
2023-02-18T02:21:53.992Z,58.83
2023-02-18T02:22:44.036Z,59.26
2023-02-18T02:23:34.095Z,59.12
2023-02-18T02:24:24.146Z,59.07
2023-02-18T02:25:14.171Z,58.91
2023-02-18T02:26:04.260Z,58.95
2023-02-18T02:26:54.285Z,58.50
2023-02-18T02:27:44.321Z,58.60
2023-02-18T02:28:34.474Z,58.84
2023-02-18T02:29:24.562Z,58.82
2023-02-18T02:30:14.645Z,58.93
2023-02-18T02:31:04.740Z,58.75
2023-02-18T02:31:54.781Z,59.02
2023-02-18T02:32:44.737Z,58.77
2023-02-18T02:33:34.776Z,59.00
2023-02-18T02:34:25.065Z,58.81
2023-02-18T02:35:15.127Z,58.87
2023-02-18T02:36:05.348Z,58.91
2023-02-18T02:36:55.229Z,59.05
2023-02-18T02:37:45.266Z,58.49
2023-02-18T02:38:35.326Z,58.64
2023-02-18T02:39:25.368Z,58.90
2023-02-18T02:40:15.650Z,58.89
2023-02-18T02:41:05.750Z,58.72
2023-02-18T02:41:55.762Z,58.85
2023-02-18T02:42:45.817Z,59.01
2023-02-18T02:43:35.862Z,58.68
2023-02-18T02:44:25.960Z,58.78
2023-02-18T02:45:15.971Z,58.59
2023-02-18T02:46:06.676Z,58.62
2023-02-18T02:46:56.282Z,58.53
2023-02-18T02:47:46.334Z,59.05
2023-02-18T02:48:36.392Z,59.15
2023-02-18T02:49:26.464Z,58.68
2023-02-18T02:50:16.467Z,58.62
2023-02-18T02:51:06.538Z,58.61
2023-02-18T02:51:56.558Z,58.85
2023-02-18T02:52:46.591Z,58.96
2023-02-18T02:53:36.762Z,58.57
2023-02-18T02:54:26.987Z,58.64
2023-02-18T02:55:16.851Z,58.79
2023-02-18T02:56:07.367Z,58.91
2023-02-18T02:56:56.988Z,58.80
2023-02-18T02:57:47.058Z,58.97
2023-02-18T02:58:37.089Z,59.13
2023-02-18T02:59:27.193Z,58.87
2023-02-18T03:00:17.211Z,58.76
2023-02-18T03:01:07.463Z,59.17
2023-02-18T03:01:57.458Z,58.86
2023-02-18T03:02:47.567Z,58.93
2023-02-18T03:03:37.522Z,59.02
2023-02-18T03:04:27.565Z,58.74
2023-02-18T03:05:17.624Z,58.86
2023-02-18T03:06:08.019Z,59.01
2023-02-18T03:06:57.969Z,59.17
2023-02-18T03:07:48.038Z,59.03
2023-02-18T03:08:38.124Z,58.75
2023-02-18T03:09:28.141Z,58.71
2023-02-18T03:10:18.199Z,59.06
2023-02-18T03:11:08.252Z,58.89
2023-02-18T03:11:58.291Z,58.74
2023-02-18T03:12:49.169Z,58.94
2023-02-18T03:13:38.614Z,58.92
2023-02-18T03:14:28.652Z,59.07
2023-02-18T03:15:18.708Z,59.13
2023-02-18T03:16:09.289Z,58.99
2023-02-18T03:16:58.812Z,58.99
2023-02-18T03:17:48.862Z,58.86
2023-02-18T03:18:39.166Z,58.74
2023-02-18T03:19:29.231Z,58.90
2023-02-18T03:20:19.269Z,59.24
2023-02-18T03:21:09.356Z,58.89
2023-02-18T03:21:59.390Z,58.82
2023-02-18T03:22:49.467Z,58.65
2023-02-18T03:23:39.482Z,59.16
2023-02-18T03:24:29.729Z,59.02
2023-02-18T03:25:19.789Z,58.73
2023-02-18T03:26:10.167Z,58.89
2023-02-18T03:26:59.865Z,58.72
2023-02-18T03:27:49.941Z,59.00
2023-02-18T03:28:40.001Z,58.92
2023-02-18T03:29:30.032Z,59.12
2023-02-18T03:30:20.345Z,59.04
2023-02-18T03:31:10.419Z,59.10
2023-02-18T03:32:00.489Z,58.93
2023-02-18T03:32:50.463Z,58.90
2023-02-18T03:33:40.495Z,58.73
2023-02-18T03:34:30.559Z,58.79
2023-02-18T03:35:20.598Z,58.61
2023-02-18T03:36:10.921Z,58.97
2023-02-18T03:37:00.931Z,59.03
2023-02-18T03:37:50.971Z,58.69
2023-02-18T03:38:41.034Z,59.14
2023-02-18T03:39:31.105Z,58.94
2023-02-18T03:40:21.150Z,58.90
2023-02-18T03:41:11.268Z,58.82
2023-02-18T03:42:01.423Z,58.86
2023-02-18T03:42:51.498Z,58.78
2023-02-18T03:43:41.527Z,58.74
2023-02-18T03:44:31.594Z,58.68
2023-02-18T03:45:21.627Z,59.01
2023-02-18T03:46:12.184Z,58.70
2023-02-18T03:47:01.789Z,58.78
2023-02-18T03:47:51.830Z,58.97
2023-02-18T03:48:41.862Z,59.16
2023-02-18T03:49:31.936Z,58.87
2023-02-18T03:50:21.972Z,58.63
2023-02-18T03:51:12.141Z,58.88
2023-02-18T03:52:02.164Z,58.94
2023-02-18T03:52:52.202Z,58.76
2023-02-18T03:53:42.256Z,58.71
2023-02-18T03:54:32.332Z,59.08
2023-02-18T03:55:22.385Z,58.58
2023-02-18T03:56:12.444Z,59.15
2023-02-18T03:57:02.718Z,58.76
2023-02-18T03:57:52.790Z,58.87
2023-02-18T03:58:42.819Z,58.81
2023-02-18T03:59:32.884Z,58.63
2023-02-18T04:00:22.917Z,58.75
2023-02-18T04:01:13.080Z,58.69
2023-02-18T04:02:03.056Z,58.56
2023-02-18T04:02:53.322Z,58.47
2023-02-18T04:03:43.351Z,58.49
2023-02-18T04:04:33.479Z,59.12
2023-02-18T04:05:23.476Z,58.82
2023-02-18T04:06:13.598Z,58.68
2023-02-18T04:07:03.590Z,58.49
2023-02-18T04:07:53.634Z,58.46
2023-02-18T04:08:43.825Z,58.98
2023-02-18T04:09:33.888Z,58.20
2023-02-18T04:10:23.914Z,58.06
2023-02-18T04:11:13.998Z,58.57
2023-02-18T04:12:04.046Z,58.68
2023-02-18T04:12:54.116Z,58.28
2023-02-18T04:13:44.149Z,58.46
2023-02-18T04:14:34.439Z,58.13
2023-02-18T04:15:24.491Z,58.08
2023-02-18T04:16:14.643Z,58.50
2023-02-18T04:17:04.611Z,58.84
2023-02-18T04:17:54.659Z,58.30
2023-02-18T04:18:44.710Z,58.52
2023-02-18T04:19:34.717Z,58.70
2023-02-18T04:20:25.002Z,58.37
2023-02-18T04:21:15.087Z,58.90
2023-02-18T04:22:05.159Z,58.51
2023-02-18T04:22:55.179Z,58.19
2023-02-18T04:23:45.213Z,58.41
2023-02-18T04:24:35.284Z,58.09
2023-02-18T04:25:25.319Z,58.13
2023-02-18T04:26:15.606Z,58.17
2023-02-18T04:27:05.620Z,57.88
2023-02-18T04:27:55.663Z,58.36
2023-02-18T04:28:45.741Z,58.77
2023-02-18T04:29:35.763Z,58.48
2023-02-18T04:30:25.845Z,58.42
2023-02-18T04:31:16.104Z,58.73
2023-02-18T04:32:05.938Z,58.29
2023-02-18T04:32:55.986Z,58.47
2023-02-18T04:33:46.136Z,58.76
2023-02-18T04:34:36.232Z,59.03
2023-02-18T04:35:26.249Z,58.36
2023-02-18T04:36:16.368Z,58.95
2023-02-18T04:37:06.346Z,58.61
2023-02-18T04:37:56.434Z,59.06
2023-02-18T04:38:46.447Z,58.32
2023-02-18T04:39:36.737Z,58.25
2023-02-18T04:40:26.802Z,58.29
2023-02-18T04:41:16.876Z,58.51
2023-02-18T04:42:06.905Z,58.87
2023-02-18T04:42:56.937Z,58.29
2023-02-18T04:43:47.030Z,58.24
2023-02-18T04:44:37.049Z,58.84
2023-02-18T04:45:27.328Z,59.17
2023-02-18T04:46:17.508Z,59.07
2023-02-18T04:47:07.431Z,58.62
2023-02-18T04:47:57.506Z,58.77
2023-02-18T04:48:47.553Z,58.92
2023-02-18T04:49:37.613Z,58.65
2023-02-18T04:50:27.683Z,58.68
2023-02-18T04:51:17.967Z,58.83
2023-02-18T04:52:07.975Z,58.91
2023-02-18T04:52:58.025Z,58.86
2023-02-18T04:53:48.052Z,58.94
2023-02-18T04:54:38.088Z,58.95
2023-02-18T04:55:28.144Z,59.03
2023-02-18T04:56:18.212Z,58.72
2023-02-18T04:57:08.244Z,58.97
2023-02-18T04:57:58.270Z,59.01
2023-02-18T04:58:48.427Z,58.91
2023-02-18T04:59:38.504Z,58.81
2023-02-18T05:00:28.541Z,58.73
2023-02-18T05:01:18.740Z,58.97
2023-02-18T05:02:08.640Z,58.84
2023-02-18T05:02:58.716Z,58.76
2023-02-18T05:03:48.807Z,58.92
2023-02-18T05:04:39.029Z,58.70
2023-02-18T05:05:29.093Z,58.92
2023-02-18T05:06:19.179Z,58.62
2023-02-18T05:07:09.170Z,58.84
2023-02-18T05:07:59.216Z,58.86
2023-02-18T05:08:49.293Z,58.77
2023-02-18T05:09:39.328Z,58.65
2023-02-18T05:10:29.648Z,58.81
2023-02-18T05:11:19.740Z,58.80
2023-02-18T05:12:09.736Z,58.49
2023-02-18T05:12:59.802Z,58.69
2023-02-18T05:13:49.852Z,58.62
2023-02-18T05:14:39.887Z,58.60
2023-02-18T05:15:29.995Z,58.67
2023-02-18T05:16:19.990Z,58.75
2023-02-18T05:17:10.035Z,58.86
2023-02-18T05:18:00.196Z,58.62
2023-02-18T05:18:50.252Z,58.56
2023-02-18T05:19:40.292Z,59.02
2023-02-18T05:20:30.350Z,59.00
2023-02-18T05:21:20.411Z,58.95
2023-02-18T05:22:10.451Z,58.85
2023-02-18T05:23:00.471Z,58.85
2023-02-18T05:23:50.796Z,58.88
2023-02-18T05:24:40.868Z,58.84
2023-02-18T05:25:30.903Z,59.11
2023-02-18T05:26:20.995Z,58.90
2023-02-18T05:27:11.030Z,58.90
2023-02-18T05:28:01.115Z,58.84
2023-02-18T05:28:51.144Z,59.00
2023-02-18T05:29:41.431Z,58.98
2023-02-18T05:30:31.549Z,59.09
2023-02-18T05:31:21.708Z,58.78
2023-02-18T05:32:11.599Z,59.08
2023-02-18T05:33:01.654Z,59.20
2023-02-18T05:33:51.680Z,59.24
2023-02-18T05:34:41.733Z,58.90
2023-02-18T05:35:32.048Z,59.08
2023-02-18T05:36:22.124Z,58.95
2023-02-18T05:37:12.193Z,58.91
2023-02-18T05:38:02.253Z,58.97
2023-02-18T05:38:52.270Z,59.24
2023-02-18T05:39:42.342Z,59.02
2023-02-18T05:40:32.373Z,58.96
2023-02-18T05:41:22.691Z,59.00
2023-02-18T05:42:12.705Z,58.90
2023-02-18T05:43:02.746Z,59.01
2023-02-18T05:43:52.773Z,59.18
2023-02-18T05:44:42.823Z,59.08
2023-02-18T05:45:32.856Z,58.93
2023-02-18T05:46:22.984Z,59.01
2023-02-18T05:47:12.947Z,59.10
2023-02-18T05:48:02.997Z,59.09
2023-02-18T05:48:53.162Z,58.87
2023-02-18T05:49:43.210Z,59.18
2023-02-18T05:50:33.248Z,59.26
2023-02-18T05:51:23.332Z,59.11
2023-02-18T05:52:13.367Z,58.96
2023-02-18T05:53:03.475Z,59.23
2023-02-18T05:53:53.481Z,59.35
2023-02-18T05:54:43.732Z,59.25
2023-02-18T05:55:33.788Z,59.21
2023-02-18T05:56:23.874Z,59.10
2023-02-18T05:57:13.892Z,59.06
2023-02-18T05:58:03.932Z,59.28
2023-02-18T05:58:53.975Z,59.03
2023-02-18T05:59:44.013Z,59.14
2023-02-18T06:00:34.337Z,59.18
2023-02-18T06:01:24.413Z,59.14
2023-02-18T06:02:14.449Z,59.07
2023-02-18T06:03:04.529Z,58.96
2023-02-18T06:03:54.573Z,59.11
2023-02-18T06:04:44.637Z,59.04
2023-02-18T06:05:34.699Z,59.05
2023-02-18T06:06:24.973Z,58.88
2023-02-18T06:07:15.005Z,59.20
2023-02-18T06:08:05.040Z,59.00
2023-02-18T06:08:55.253Z,59.13
2023-02-18T06:09:45.157Z,59.02
2023-02-18T06:10:35.220Z,59.09
2023-02-18T06:11:25.272Z,59.13
2023-02-18T06:12:15.288Z,59.21
2023-02-18T06:13:05.326Z,59.23
2023-02-18T06:13:55.485Z,59.23
2023-02-18T06:14:45.575Z,59.32
2023-02-18T06:15:35.600Z,59.27
2023-02-18T06:16:25.728Z,59.20
2023-02-18T06:17:15.724Z,59.19
2023-02-18T06:18:05.780Z,59.09
2023-02-18T06:18:55.813Z,59.13
2023-02-18T06:19:46.109Z,59.32
2023-02-18T06:20:36.128Z,60.08
2023-02-18T06:21:26.220Z,59.89
2023-02-18T06:22:16.239Z,59.68
2023-02-18T06:23:07.621Z,59.64
2023-02-18T06:23:56.337Z,59.56
2023-02-18T06:24:46.410Z,59.49
2023-02-18T06:25:36.417Z,59.38
2023-02-18T06:26:26.461Z,59.36
2023-02-18T06:27:16.624Z,59.26
2023-02-18T06:28:06.711Z,59.16
2023-02-18T06:28:56.722Z,59.17
2023-02-18T06:29:46.796Z,59.20
2023-02-18T06:30:36.877Z,59.15
2023-02-18T06:31:26.996Z,59.05
2023-02-18T06:32:17.099Z,58.96
2023-02-18T06:33:07.207Z,58.94
2023-02-18T06:33:57.261Z,58.90
2023-02-18T06:34:47.299Z,58.88
2023-02-18T06:35:37.366Z,58.87
2023-02-18T06:36:27.420Z,58.81
2023-02-18T06:37:17.435Z,58.81
2023-02-18T06:38:07.488Z,58.90
2023-02-18T06:38:57.806Z,58.88
2023-02-18T06:39:47.828Z,58.82
2023-02-18T06:40:37.885Z,58.80
2023-02-18T06:41:27.943Z,58.83
2023-02-18T06:42:17.976Z,58.85
2023-02-18T06:43:08.048Z,58.79
2023-02-18T06:43:58.074Z,58.81
2023-02-18T06:44:48.402Z,58.73
2023-02-18T06:45:38.462Z,58.73
2023-02-18T06:46:28.538Z,58.74
2023-02-18T06:47:18.648Z,58.70
2023-02-18T06:48:08.607Z,58.64
2023-02-18T06:48:58.674Z,58.71
2023-02-18T06:49:48.710Z,58.71
2023-02-18T06:50:39.020Z,58.75
2023-02-18T06:51:29.110Z,58.77
2023-02-18T06:52:19.144Z,58.78
2023-02-18T06:53:09.214Z,58.75
2023-02-18T06:53:59.245Z,58.70
2023-02-18T06:54:49.322Z,58.65
2023-02-18T06:55:39.390Z,58.70
2023-02-18T06:56:31.065Z,58.67
2023-02-18T06:57:19.679Z,58.64
2023-02-18T06:58:09.723Z,58.60
2023-02-18T06:58:59.793Z,58.64
2023-02-18T06:59:49.830Z,58.69
2023-02-18T07:00:39.921Z,58.66
2023-02-18T07:01:29.966Z,58.56
2023-02-18T07:02:20.208Z,58.57
2023-02-18T07:03:10.270Z,58.61
2023-02-18T07:04:00.362Z,58.59
2023-02-18T07:04:50.355Z,58.54
2023-02-18T07:05:40.390Z,58.60
2023-02-18T07:06:30.469Z,58.68
2023-02-18T07:07:20.482Z,58.58
2023-02-18T07:08:10.815Z,58.51
2023-02-18T07:09:00.895Z,58.55
2023-02-18T07:09:50.911Z,58.54
2023-02-18T07:10:40.968Z,58.55
2023-02-18T07:11:31.101Z,58.56
2023-02-18T07:12:21.095Z,58.59
2023-02-18T07:13:11.145Z,58.57
2023-02-18T07:14:01.162Z,58.74
2023-02-18T07:14:51.204Z,58.68
2023-02-18T07:15:41.269Z,58.60
2023-02-18T07:16:31.377Z,58.56
2023-02-18T07:17:21.458Z,58.60
2023-02-18T07:18:11.533Z,58.60
2023-02-18T07:19:01.571Z,58.59
2023-02-18T07:19:51.643Z,58.63
2023-02-18T07:20:41.684Z,58.53
2023-02-18T07:21:31.768Z,58.60
2023-02-18T07:22:21.799Z,58.57
2023-02-18T07:23:12.081Z,58.58
2023-02-18T07:24:02.150Z,58.66
2023-02-18T07:24:52.198Z,58.65
2023-02-18T07:25:42.216Z,58.68
2023-02-18T07:26:32.283Z,58.57
2023-02-18T07:27:22.347Z,58.68
2023-02-18T07:28:12.361Z,58.69
2023-02-18T07:29:02.394Z,58.76
2023-02-18T07:29:52.439Z,58.62
2023-02-18T07:30:42.601Z,58.59
2023-02-18T07:31:32.807Z,58.59
2023-02-18T07:32:22.707Z,58.60
2023-02-18T07:33:12.771Z,58.57
2023-02-18T07:34:02.805Z,58.60
2023-02-18T07:34:52.879Z,58.63
2023-02-18T07:35:42.915Z,58.61
2023-02-18T07:36:33.229Z,58.60
2023-02-18T07:37:23.242Z,58.64
2023-02-18T07:38:13.279Z,58.61
2023-02-18T07:39:03.308Z,58.67
2023-02-18T07:39:53.347Z,58.73
2023-02-18T07:40:43.397Z,58.56
2023-02-18T07:41:33.469Z,58.56
2023-02-18T07:42:23.475Z,58.51
2023-02-18T07:43:13.544Z,58.61
2023-02-18T07:44:03.675Z,58.63
2023-02-18T07:44:53.744Z,58.56
2023-02-18T07:45:43.851Z,58.55
2023-02-18T07:46:33.869Z,58.63
2023-02-18T07:47:23.913Z,58.61
2023-02-18T07:48:13.937Z,58.57
2023-02-18T07:49:03.970Z,58.58
2023-02-18T07:49:54.300Z,58.50
2023-02-18T07:50:44.353Z,58.48
2023-02-18T07:51:34.417Z,58.47
2023-02-18T07:52:24.416Z,58.45
2023-02-18T07:53:14.461Z,58.47
2023-02-18T07:54:04.512Z,58.49
2023-02-18T07:54:54.559Z,58.48
2023-02-18T07:55:44.581Z,58.54
2023-02-18T07:56:34.633Z,58.60
2023-02-18T07:57:24.791Z,58.51
2023-02-18T07:58:14.855Z,58.48
2023-02-18T07:59:04.921Z,58.49
2023-02-18T07:59:54.974Z,58.44
2023-02-18T08:00:45.011Z,58.44
2023-02-18T08:01:35.101Z,58.45
2023-02-18T08:02:25.281Z,58.44
2023-02-18T08:03:15.415Z,58.45
2023-02-18T08:04:05.480Z,58.44
2023-02-18T08:04:55.497Z,58.47
2023-02-18T08:05:45.553Z,58.48
2023-02-18T08:06:35.642Z,58.46
2023-02-18T08:07:25.624Z,58.45
2023-02-18T08:08:15.678Z,58.46
2023-02-18T08:09:05.981Z,58.47
2023-02-18T08:09:56.047Z,58.43
2023-02-18T08:10:46.084Z,58.45
2023-02-18T08:11:36.177Z,58.42
2023-02-18T08:12:26.216Z,58.47
2023-02-18T08:13:16.292Z,58.43
2023-02-18T08:14:06.356Z,58.56
2023-02-18T08:14:56.621Z,59.13
2023-02-18T08:15:46.671Z,59.72
2023-02-18T08:16:36.897Z,60.61
2023-02-18T08:17:26.802Z,60.55
2023-02-18T08:18:16.886Z,60.36
2023-02-18T08:19:06.944Z,60.36
2023-02-18T08:19:56.999Z,60.53
2023-02-18T08:20:47.189Z,60.66
2023-02-18T08:21:37.277Z,60.39
2023-02-18T08:22:27.297Z,60.64
2023-02-18T08:23:17.364Z,60.98
2023-02-18T08:24:07.390Z,61.09
2023-02-18T08:24:57.461Z,61.03
2023-02-18T08:25:49.995Z,61.03
2023-02-18T08:26:37.559Z,61.27
2023-02-18T08:27:27.622Z,61.24
2023-02-18T08:28:17.677Z,61.13
2023-02-18T08:29:07.703Z,61.23
2023-02-18T08:29:57.874Z,61.01
2023-02-18T08:30:47.930Z,61.08
2023-02-18T08:31:38.269Z,61.05
2023-02-18T08:32:28.132Z,61.09
2023-02-18T08:33:18.203Z,60.97
2023-02-18T08:34:08.252Z,61.06
2023-02-18T08:34:58.325Z,60.79
2023-02-18T08:35:48.343Z,60.36
2023-02-18T08:36:38.441Z,60.18
2023-02-18T08:37:28.676Z,59.86
2023-02-18T08:38:18.738Z,59.31
2023-02-18T08:39:08.774Z,59.12
2023-02-18T08:39:58.840Z,58.65
2023-02-18T08:40:48.879Z,58.37
2023-02-18T08:41:38.965Z,58.14
2023-02-18T08:42:29.006Z,57.90
2023-02-18T08:43:19.276Z,57.80
2023-02-18T08:44:09.344Z,57.57
2023-02-18T08:44:59.396Z,57.49
2023-02-18T08:45:49.454Z,57.46
2023-02-18T08:46:39.576Z,57.42
2023-02-18T08:48:17.686Z,57.30
2023-02-18T08:48:20.851Z,57.42
2023-02-18T08:49:09.657Z,57.21
2023-02-18T08:49:59.722Z,57.18
2023-02-18T08:50:49.764Z,57.20
2023-02-18T08:51:39.850Z,57.30
2023-02-18T08:52:29.883Z,57.26
2023-02-18T08:53:19.958Z,57.30
2023-02-18T08:54:10.004Z,57.27
2023-02-18T08:55:00.278Z,57.19
2023-02-18T08:55:50.356Z,57.18
2023-02-18T08:56:40.410Z,57.21
2023-02-18T08:57:30.426Z,57.15
2023-02-18T08:58:20.473Z,57.21
2023-02-18T08:59:10.536Z,57.28
2023-02-18T09:00:00.597Z,57.34
2023-02-18T09:00:50.933Z,57.32
2023-02-18T09:01:41.074Z,57.34
2023-02-18T09:02:31.040Z,57.40
2023-02-18T09:03:21.082Z,57.47
2023-02-18T09:04:11.174Z,57.51
2023-02-18T09:05:01.173Z,57.50
2023-02-18T09:05:51.218Z,57.49
2023-02-18T09:06:41.273Z,57.48
2023-02-18T09:07:31.326Z,57.46
2023-02-18T09:08:21.355Z,57.50
2023-02-18T09:09:11.391Z,57.50
2023-02-18T09:10:01.458Z,57.58
2023-02-18T09:10:51.500Z,57.65
2023-02-18T09:11:41.687Z,57.67
2023-02-18T09:12:31.689Z,57.58
2023-02-18T09:13:21.752Z,57.66
2023-02-18T09:14:11.813Z,57.70
2023-02-18T09:15:01.889Z,57.68
2023-02-18T09:15:51.949Z,57.71
2023-02-18T09:16:41.987Z,57.75
2023-02-18T09:17:31.998Z,57.72
2023-02-18T09:18:22.032Z,57.66
2023-02-18T09:19:12.192Z,57.70
2023-02-18T09:20:02.271Z,57.69
2023-02-18T09:20:52.308Z,57.83
2023-02-18T09:21:42.412Z,58.76
2023-02-18T09:22:32.415Z,58.80
2023-02-18T09:23:22.479Z,59.12
2023-02-18T09:24:12.525Z,59.57
2023-02-18T09:25:02.807Z,59.59
2023-02-18T09:25:52.881Z,59.64
2023-02-18T09:26:42.975Z,59.57
2023-02-18T09:27:32.987Z,59.22
2023-02-18T09:28:23.057Z,59.19
2023-02-18T09:29:13.071Z,59.18
2023-02-18T09:30:03.198Z,59.09
2023-02-18T09:30:53.512Z,58.99
2023-02-18T09:31:43.625Z,58.74
2023-02-18T09:32:34.978Z,58.67
2023-02-18T09:33:23.568Z,58.60
2023-02-18T09:34:13.630Z,58.41
2023-02-18T09:35:03.819Z,58.57
2023-02-18T09:35:53.732Z,58.45
2023-02-18T09:36:44.125Z,58.30
2023-02-18T09:37:34.108Z,58.25
2023-02-18T09:38:24.164Z,58.22
2023-02-18T09:39:14.179Z,58.36
2023-02-18T09:40:04.228Z,58.41
2023-02-18T09:40:54.276Z,58.34
2023-02-18T09:41:44.330Z,58.34
2023-02-18T09:42:34.602Z,58.35
2023-02-18T09:43:24.665Z,58.31
2023-02-18T09:44:14.713Z,58.33
2023-02-18T09:45:04.752Z,58.32
2023-02-18T09:45:54.844Z,58.34
2023-02-18T09:46:44.913Z,58.35
2023-02-18T09:47:34.900Z,58.34
2023-02-18T09:48:26.662Z,58.35
2023-02-18T09:49:15.133Z,58.38
2023-02-18T09:50:05.176Z,58.41
2023-02-18T09:50:55.238Z,58.50
2023-02-18T09:51:45.307Z,58.41
2023-02-18T09:52:35.317Z,58.38
2023-02-18T09:53:25.355Z,58.37
2023-02-18T09:54:15.678Z,58.42
2023-02-18T09:55:05.749Z,58.40
2023-02-18T09:55:55.790Z,58.40
2023-02-18T09:56:45.873Z,58.40
2023-02-18T09:57:35.900Z,58.37
2023-02-18T09:58:25.976Z,58.42
2023-02-18T09:59:16.013Z,58.57
2023-02-18T10:00:06.045Z,58.55
2023-02-18T10:00:56.114Z,58.59
2023-02-18T10:01:46.186Z,58.46
2023-02-18T10:02:36.320Z,58.41
2023-02-18T10:03:26.389Z,58.43
2023-02-18T10:04:16.437Z,58.46
2023-02-18T10:05:06.482Z,58.43
2023-02-18T10:05:56.538Z,58.44
2023-02-18T10:06:46.605Z,58.45
2023-02-18T10:07:36.647Z,58.46
2023-02-18T10:08:26.925Z,58.45
2023-02-18T10:09:16.988Z,58.46
2023-02-18T10:10:07.014Z,58.47
2023-02-18T10:10:57.117Z,58.47
2023-02-18T10:11:47.164Z,58.50
2023-02-18T10:12:37.155Z,58.52
2023-02-18T10:13:27.198Z,58.50
2023-02-18T10:14:17.514Z,58.52
2023-02-18T10:15:07.596Z,58.51
2023-02-18T10:15:57.674Z,58.50
2023-02-18T10:16:47.709Z,58.51
2023-02-18T10:17:37.743Z,58.58
2023-02-18T10:18:27.859Z,58.53
2023-02-18T10:19:17.896Z,58.51
2023-02-18T10:20:08.587Z,58.53
2023-02-18T10:20:58.105Z,58.57
2023-02-18T10:21:48.168Z,58.54
2023-02-18T10:22:38.190Z,58.54
2023-02-18T10:23:28.228Z,58.55
2023-02-18T10:24:18.281Z,58.54
2023-02-18T10:25:08.345Z,58.54
2023-02-18T10:25:58.354Z,58.56
2023-02-18T10:26:48.464Z,58.53
2023-02-18T10:27:38.564Z,58.54
2023-02-18T10:28:28.628Z,58.55
2023-02-18T10:29:21.422Z,58.55
2023-02-18T10:30:08.718Z,58.56
2023-02-18T10:30:58.930Z,58.58
2023-02-18T10:31:49.080Z,58.56
2023-02-18T10:32:38.985Z,58.58
2023-02-18T10:33:29.072Z,58.58
2023-02-18T10:34:19.103Z,58.57
2023-02-18T10:35:09.183Z,58.56
2023-02-18T10:35:59.205Z,58.58
2023-02-18T10:36:49.513Z,58.57
2023-02-18T10:37:39.544Z,58.59
2023-02-18T10:38:29.572Z,58.60
2023-02-18T10:39:19.634Z,58.59
2023-02-18T10:40:09.672Z,58.58
2023-02-18T10:41:00.236Z,58.58
2023-02-18T10:41:49.828Z,58.58
2023-02-18T10:42:39.821Z,58.62
2023-02-18T10:43:29.893Z,58.58
2023-02-18T10:44:20.167Z,58.56